sensor_id;sensor_type;location;lat;lon;timestamp;temperature;humidity
4425;DHT22;2225;53.568;13.266;2024-01-25T00:00:57;11.50;93.10
4425;DHT22;2225;53.568;13.266;2024-01-25T00:03:24;11.50;93.10
4425;DHT22;2225;53.568;13.266;2024-01-25T00:05:51;11.50;93.10
4425;DHT22;2225;53.568;13.266;2024-01-25T00:08:18;11.60;92.90
4425;DHT22;2225;53.568;13.266;2024-01-25T00:10:45;11.60;92.80
4425;DHT22;2225;53.568;13.266;2024-01-25T00:13:12;11.60;93.20
4425;DHT22;2225;53.568;13.266;2024-01-25T00:15:39;11.60;93.00
4425;DHT22;2225;53.568;13.266;2024-01-25T00:18:06;11.60;92.50
4425;DHT22;2225;53.568;13.266;2024-01-25T00:20:33;11.50;92.30
4425;DHT22;2225;53.568;13.266;2024-01-25T00:23:00;11.60;92.70
4425;DHT22;2225;53.568;13.266;2024-01-25T00:25:28;11.60;92.50
4425;DHT22;2225;53.568;13.266;2024-01-25T00:27:55;11.60;92.50
4425;DHT22;2225;53.568;13.266;2024-01-25T00:30:22;11.60;92.20
4425;DHT22;2225;53.568;13.266;2024-01-25T00:32:49;11.60;92.10
4425;DHT22;2225;53.568;13.266;2024-01-25T00:35:17;11.60;92.10
4425;DHT22;2225;53.568;13.266;2024-01-25T00:37:44;11.60;92.40
4425;DHT22;2225;53.568;13.266;2024-01-25T00:40:12;11.60;91.90
4425;DHT22;2225;53.568;13.266;2024-01-25T00:42:47;11.60;92.00
4425;DHT22;2225;53.568;13.266;2024-01-25T00:45:21;11.60;92.10
4425;DHT22;2225;53.568;13.266;2024-01-25T00:47:50;11.60;92.00
4425;DHT22;2225;53.568;13.266;2024-01-25T00:50:18;11.60;91.80
4425;DHT22;2225;53.568;13.266;2024-01-25T00:52:48;11.60;91.90
4425;DHT22;2225;53.568;13.266;2024-01-25T00:55:15;11.60;92.00
4425;DHT22;2225;53.568;13.266;2024-01-25T00:57:43;11.50;91.90
4425;DHT22;2225;53.568;13.266;2024-01-25T01:00:11;11.60;92.00
4425;DHT22;2225;53.568;13.266;2024-01-25T01:02:45;11.50;91.80
4425;DHT22;2225;53.568;13.266;2024-01-25T01:05:13;11.60;92.10
4425;DHT22;2225;53.568;13.266;2024-01-25T01:07:41;11.60;92.20
4425;DHT22;2225;53.568;13.266;2024-01-25T01:10:09;11.60;91.90
4425;DHT22;2225;53.568;13.266;2024-01-25T01:12:36;11.60;92.00
4425;DHT22;2225;53.568;13.266;2024-01-25T01:15:04;11.60;91.90
4425;DHT22;2225;53.568;13.266;2024-01-25T01:17:31;11.60;92.00
4425;DHT22;2225;53.568;13.266;2024-01-25T01:19:58;11.70;92.10
4425;DHT22;2225;53.568;13.266;2024-01-25T01:22:26;11.60;91.90
4425;DHT22;2225;53.568;13.266;2024-01-25T01:24:53;11.60;92.10
4425;DHT22;2225;53.568;13.266;2024-01-25T01:27:21;11.70;92.00
4425;DHT22;2225;53.568;13.266;2024-01-25T01:29:48;11.60;91.80
4425;DHT22;2225;53.568;13.266;2024-01-25T01:32:16;11.60;91.80
4425;DHT22;2225;53.568;13.266;2024-01-25T01:34:43;11.60;91.80
4425;DHT22;2225;53.568;13.266;2024-01-25T01:37:10;11.60;91.90
4425;DHT22;2225;53.568;13.266;2024-01-25T01:39:37;11.60;92.10
4425;DHT22;2225;53.568;13.266;2024-01-25T01:42:04;11.60;92.00
4425;DHT22;2225;53.568;13.266;2024-01-25T01:44:31;11.60;91.90
4425;DHT22;2225;53.568;13.266;2024-01-25T01:46:58;11.60;91.90
4425;DHT22;2225;53.568;13.266;2024-01-25T01:49:27;11.60;91.90
4425;DHT22;2225;53.568;13.266;2024-01-25T01:51:55;11.60;91.70
4425;DHT22;2225;53.568;13.266;2024-01-25T01:54:22;11.60;91.70
4425;DHT22;2225;53.568;13.266;2024-01-25T01:56:49;11.60;91.80
4425;DHT22;2225;53.568;13.266;2024-01-25T01:59:17;11.60;91.80
4425;DHT22;2225;53.568;13.266;2024-01-25T02:01:44;11.50;91.80
4425;DHT22;2225;53.568;13.266;2024-01-25T02:04:11;11.60;91.90
4425;DHT22;2225;53.568;13.266;2024-01-25T02:06:39;11.60;91.90
4425;DHT22;2225;53.568;13.266;2024-01-25T02:09:06;11.60;91.50
4425;DHT22;2225;53.568;13.266;2024-01-25T02:11:34;11.50;91.50
4425;DHT22;2225;53.568;13.266;2024-01-25T02:14:01;11.50;91.50
4425;DHT22;2225;53.568;13.266;2024-01-25T02:16:28;11.50;91.90
4425;DHT22;2225;53.568;13.266;2024-01-25T02:18:55;11.50;91.30
4425;DHT22;2225;53.568;13.266;2024-01-25T02:21:24;11.40;91.40
4425;DHT22;2225;53.568;13.266;2024-01-25T02:23:51;11.40;91.70
4425;DHT22;2225;53.568;13.266;2024-01-25T02:26:18;11.40;91.70
4425;DHT22;2225;53.568;13.266;2024-01-25T02:28:45;11.40;92.00
4425;DHT22;2225;53.568;13.266;2024-01-25T02:31:12;11.40;91.80
4425;DHT22;2225;53.568;13.266;2024-01-25T02:33:39;11.40;91.80
4425;DHT22;2225;53.568;13.266;2024-01-25T02:36:07;11.40;91.80
4425;DHT22;2225;53.568;13.266;2024-01-25T02:38:34;11.40;91.80
4425;DHT22;2225;53.568;13.266;2024-01-25T02:41:00;11.40;91.80
4425;DHT22;2225;53.568;13.266;2024-01-25T02:43:27;11.40;91.90
4425;DHT22;2225;53.568;13.266;2024-01-25T02:45:54;11.40;91.70
4425;DHT22;2225;53.568;13.266;2024-01-25T02:48:21;11.40;91.70
4425;DHT22;2225;53.568;13.266;2024-01-25T02:50:48;11.30;91.50
4425;DHT22;2225;53.568;13.266;2024-01-25T02:53:16;11.30;91.80
4425;DHT22;2225;53.568;13.266;2024-01-25T02:55:43;11.30;91.80
4425;DHT22;2225;53.568;13.266;2024-01-25T02:58:10;11.40;91.90
4425;DHT22;2225;53.568;13.266;2024-01-25T03:00:37;11.40;91.90
4425;DHT22;2225;53.568;13.266;2024-01-25T03:03:04;11.40;91.90
4425;DHT22;2225;53.568;13.266;2024-01-25T03:05:31;11.40;91.80
4425;DHT22;2225;53.568;13.266;2024-01-25T03:07:59;11.30;91.60
4425;DHT22;2225;53.568;13.266;2024-01-25T03:10:26;11.40;91.80
4425;DHT22;2225;53.568;13.266;2024-01-25T03:12:53;11.40;91.90
4425;DHT22;2225;53.568;13.266;2024-01-25T03:15:20;11.30;91.80
4425;DHT22;2225;53.568;13.266;2024-01-25T03:17:47;11.40;92.00
4425;DHT22;2225;53.568;13.266;2024-01-25T03:20:14;11.40;92.10
4425;DHT22;2225;53.568;13.266;2024-01-25T03:22:41;11.40;92.00
4425;DHT22;2225;53.568;13.266;2024-01-25T03:25:08;11.40;92.00
4425;DHT22;2225;53.568;13.266;2024-01-25T03:27:36;11.40;91.70
4425;DHT22;2225;53.568;13.266;2024-01-25T03:30:04;11.40;91.80
4425;DHT22;2225;53.568;13.266;2024-01-25T03:32:35;11.40;91.90
4425;DHT22;2225;53.568;13.266;2024-01-25T03:35:03;11.40;91.80
4425;DHT22;2225;53.568;13.266;2024-01-25T03:37:30;11.40;91.70
4425;DHT22;2225;53.568;13.266;2024-01-25T03:39:57;11.40;91.80
4425;DHT22;2225;53.568;13.266;2024-01-25T03:42:24;11.50;91.70
4425;DHT22;2225;53.568;13.266;2024-01-25T03:44:52;11.50;91.70
4425;DHT22;2225;53.568;13.266;2024-01-25T03:47:19;11.40;91.50
4425;DHT22;2225;53.568;13.266;2024-01-25T03:49:45;11.50;91.80
4425;DHT22;2225;53.568;13.266;2024-01-25T03:52:13;11.40;91.70
4425;DHT22;2225;53.568;13.266;2024-01-25T03:54:40;11.50;91.80
4425;DHT22;2225;53.568;13.266;2024-01-25T03:57:07;11.50;91.80
4425;DHT22;2225;53.568;13.266;2024-01-25T03:59:34;11.50;91.80
4425;DHT22;2225;53.568;13.266;2024-01-25T04:02:01;11.50;91.90
4425;DHT22;2225;53.568;13.266;2024-01-25T04:04:28;11.50;91.90
4425;DHT22;2225;53.568;13.266;2024-01-25T04:06:55;11.50;91.90
4425;DHT22;2225;53.568;13.266;2024-01-25T04:09:22;11.50;91.90
4425;DHT22;2225;53.568;13.266;2024-01-25T04:11:49;11.40;91.90
4425;DHT22;2225;53.568;13.266;2024-01-25T04:14:16;11.40;91.80
4425;DHT22;2225;53.568;13.266;2024-01-25T04:16:43;11.40;92.00
4425;DHT22;2225;53.568;13.266;2024-01-25T04:19:13;11.40;92.00
4425;DHT22;2225;53.568;13.266;2024-01-25T04:21:40;11.30;92.00
4425;DHT22;2225;53.568;13.266;2024-01-25T04:24:07;11.40;92.00
4425;DHT22;2225;53.568;13.266;2024-01-25T04:26:34;11.40;92.00
4425;DHT22;2225;53.568;13.266;2024-01-25T04:29:01;11.40;92.00
4425;DHT22;2225;53.568;13.266;2024-01-25T04:31:28;11.40;92.10
4425;DHT22;2225;53.568;13.266;2024-01-25T04:33:55;11.40;92.10
4425;DHT22;2225;53.568;13.266;2024-01-25T04:36:23;11.50;92.20
4425;DHT22;2225;53.568;13.266;2024-01-25T04:38:50;11.40;92.10
4425;DHT22;2225;53.568;13.266;2024-01-25T04:41:17;11.40;92.10
4425;DHT22;2225;53.568;13.266;2024-01-25T04:43:44;11.50;92.20
4425;DHT22;2225;53.568;13.266;2024-01-25T04:46:12;11.40;92.10
4425;DHT22;2225;53.568;13.266;2024-01-25T04:48:39;11.50;92.00
4425;DHT22;2225;53.568;13.266;2024-01-25T04:51:07;11.40;92.10
4425;DHT22;2225;53.568;13.266;2024-01-25T04:53:33;11.40;92.20
4425;DHT22;2225;53.568;13.266;2024-01-25T04:56:00;11.40;92.10
4425;DHT22;2225;53.568;13.266;2024-01-25T04:58:28;11.40;92.20
4425;DHT22;2225;53.568;13.266;2024-01-25T05:00:55;11.40;92.20
4425;DHT22;2225;53.568;13.266;2024-01-25T05:03:22;11.40;92.20
4425;DHT22;2225;53.568;13.266;2024-01-25T05:05:49;11.40;92.10
4425;DHT22;2225;53.568;13.266;2024-01-25T05:08:16;11.40;92.20
4425;DHT22;2225;53.568;13.266;2024-01-25T05:10:43;11.40;92.20
4425;DHT22;2225;53.568;13.266;2024-01-25T05:13:12;11.30;92.30
4425;DHT22;2225;53.568;13.266;2024-01-25T05:15:39;11.30;92.30
4425;DHT22;2225;53.568;13.266;2024-01-25T05:18:06;11.30;92.20
4425;DHT22;2225;53.568;13.266;2024-01-25T05:20:33;11.30;92.30
4425;DHT22;2225;53.568;13.266;2024-01-25T05:23:04;11.20;92.30
4425;DHT22;2225;53.568;13.266;2024-01-25T05:25:32;11.20;92.40
4425;DHT22;2225;53.568;13.266;2024-01-25T05:27:59;11.20;92.40
4425;DHT22;2225;53.568;13.266;2024-01-25T05:30:27;11.20;92.40
4425;DHT22;2225;53.568;13.266;2024-01-25T05:32:54;11.20;92.50
4425;DHT22;2225;53.568;13.266;2024-01-25T05:35:22;11.20;92.50
4425;DHT22;2225;53.568;13.266;2024-01-25T05:37:50;11.30;92.60
4425;DHT22;2225;53.568;13.266;2024-01-25T05:40:18;11.30;92.60
4425;DHT22;2225;53.568;13.266;2024-01-25T05:42:45;11.30;92.60
4425;DHT22;2225;53.568;13.266;2024-01-25T05:45:12;11.30;92.60
4425;DHT22;2225;53.568;13.266;2024-01-25T05:47:39;11.30;92.70
4425;DHT22;2225;53.568;13.266;2024-01-25T05:50:07;11.30;92.60
4425;DHT22;2225;53.568;13.266;2024-01-25T05:52:34;11.30;92.60
4425;DHT22;2225;53.568;13.266;2024-01-25T05:55:05;11.30;92.60
4425;DHT22;2225;53.568;13.266;2024-01-25T05:57:34;11.30;92.70
4425;DHT22;2225;53.568;13.266;2024-01-25T06:00:02;11.30;92.60
4425;DHT22;2225;53.568;13.266;2024-01-25T06:02:33;11.30;92.60
4425;DHT22;2225;53.568;13.266;2024-01-25T06:05:01;11.30;92.50
4425;DHT22;2225;53.568;13.266;2024-01-25T06:07:28;11.30;92.60
4425;DHT22;2225;53.568;13.266;2024-01-25T06:09:55;11.20;92.60
4425;DHT22;2225;53.568;13.266;2024-01-25T06:12:22;11.20;92.60
4425;DHT22;2225;53.568;13.266;2024-01-25T06:14:49;11.20;92.60
4425;DHT22;2225;53.568;13.266;2024-01-25T06:17:18;11.20;92.60
4425;DHT22;2225;53.568;13.266;2024-01-25T06:19:45;11.20;92.70
4425;DHT22;2225;53.568;13.266;2024-01-25T06:22:13;11.20;92.70
4425;DHT22;2225;53.568;13.266;2024-01-25T06:24:40;11.20;92.70
4425;DHT22;2225;53.568;13.266;2024-01-25T06:27:07;11.20;92.70
4425;DHT22;2225;53.568;13.266;2024-01-25T06:29:35;11.10;92.80
4425;DHT22;2225;53.568;13.266;2024-01-25T06:32:03;11.10;92.80
4425;DHT22;2225;53.568;13.266;2024-01-25T06:34:39;11.10;92.80
4425;DHT22;2225;53.568;13.266;2024-01-25T06:37:06;11.00;92.90
4425;DHT22;2225;53.568;13.266;2024-01-25T06:39:33;11.00;93.00
4425;DHT22;2225;53.568;13.266;2024-01-25T06:42:01;11.00;92.90
4425;DHT22;2225;53.568;13.266;2024-01-25T06:44:28;11.00;92.80
4425;DHT22;2225;53.568;13.266;2024-01-25T06:46:55;11.00;92.80
4425;DHT22;2225;53.568;13.266;2024-01-25T06:49:21;11.10;92.60
4425;DHT22;2225;53.568;13.266;2024-01-25T06:51:49;11.10;92.70
4425;DHT22;2225;53.568;13.266;2024-01-25T06:54:16;11.10;92.80
4425;DHT22;2225;53.568;13.266;2024-01-25T06:56:43;11.00;92.70
4425;DHT22;2225;53.568;13.266;2024-01-25T06:59:10;11.00;92.60
4425;DHT22;2225;53.568;13.266;2024-01-25T07:01:38;11.00;92.80
4425;DHT22;2225;53.568;13.266;2024-01-25T07:04:06;11.10;92.90
4425;DHT22;2225;53.568;13.266;2024-01-25T07:06:33;11.00;92.80
4425;DHT22;2225;53.568;13.266;2024-01-25T07:09:01;11.00;93.00
4425;DHT22;2225;53.568;13.266;2024-01-25T07:11:27;11.00;93.00
4425;DHT22;2225;53.568;13.266;2024-01-25T07:13:55;11.00;93.00
4425;DHT22;2225;53.568;13.266;2024-01-25T07:16:22;11.00;93.00
4425;DHT22;2225;53.568;13.266;2024-01-25T07:18:50;11.00;93.20
4425;DHT22;2225;53.568;13.266;2024-01-25T07:21:17;11.00;93.30
4425;DHT22;2225;53.568;13.266;2024-01-25T07:23:44;10.90;93.20
4425;DHT22;2225;53.568;13.266;2024-01-25T07:26:17;11.00;93.30
4425;DHT22;2225;53.568;13.266;2024-01-25T07:28:48;11.00;93.30
4425;DHT22;2225;53.568;13.266;2024-01-25T07:31:16;11.00;93.30
4425;DHT22;2225;53.568;13.266;2024-01-25T07:33:43;11.00;93.30
4425;DHT22;2225;53.568;13.266;2024-01-25T07:36:10;11.00;93.30
4425;DHT22;2225;53.568;13.266;2024-01-25T07:38:37;11.00;93.30
4425;DHT22;2225;53.568;13.266;2024-01-25T07:41:04;11.00;93.40
4425;DHT22;2225;53.568;13.266;2024-01-25T07:43:31;11.00;93.50
4425;DHT22;2225;53.568;13.266;2024-01-25T07:45:58;11.00;93.40
4425;DHT22;2225;53.568;13.266;2024-01-25T07:48:25;11.00;93.40
4425;DHT22;2225;53.568;13.266;2024-01-25T07:50:52;11.00;93.40
4425;DHT22;2225;53.568;13.266;2024-01-25T07:53:19;11.00;93.30
4425;DHT22;2225;53.568;13.266;2024-01-25T07:55:46;11.00;93.40
4425;DHT22;2225;53.568;13.266;2024-01-25T07:58:15;11.00;93.50
4425;DHT22;2225;53.568;13.266;2024-01-25T08:00:42;11.00;93.50
4425;DHT22;2225;53.568;13.266;2024-01-25T08:03:09;11.00;93.50
4425;DHT22;2225;53.568;13.266;2024-01-25T08:05:36;11.00;93.60
4425;DHT22;2225;53.568;13.266;2024-01-25T08:08:13;11.00;93.60
4425;DHT22;2225;53.568;13.266;2024-01-25T08:10:41;11.00;93.70
4425;DHT22;2225;53.568;13.266;2024-01-25T08:13:08;11.00;93.70
4425;DHT22;2225;53.568;13.266;2024-01-25T08:15:35;11.00;93.70
4425;DHT22;2225;53.568;13.266;2024-01-25T08:18:02;11.00;93.80
4425;DHT22;2225;53.568;13.266;2024-01-25T08:20:31;11.00;94.00
4425;DHT22;2225;53.568;13.266;2024-01-25T08:22:58;11.00;93.60
4425;DHT22;2225;53.568;13.266;2024-01-25T08:25:26;11.00;93.50
4425;DHT22;2225;53.568;13.266;2024-01-25T08:27:53;11.00;93.60
4425;DHT22;2225;53.568;13.266;2024-01-25T08:30:20;11.00;93.40
4425;DHT22;2225;53.568;13.266;2024-01-25T08:32:47;11.00;93.50
4425;DHT22;2225;53.568;13.266;2024-01-25T08:35:14;11.00;93.60
4425;DHT22;2225;53.568;13.266;2024-01-25T08:37:42;11.00;93.60
4425;DHT22;2225;53.568;13.266;2024-01-25T08:40:10;11.00;93.60
4425;DHT22;2225;53.568;13.266;2024-01-25T08:42:38;11.00;93.60
4425;DHT22;2225;53.568;13.266;2024-01-25T08:45:05;11.10;93.70
4425;DHT22;2225;53.568;13.266;2024-01-25T08:47:36;11.00;93.60
4425;DHT22;2225;53.568;13.266;2024-01-25T08:50:03;11.00;93.70
4425;DHT22;2225;53.568;13.266;2024-01-25T08:52:33;11.00;93.70
4425;DHT22;2225;53.568;13.266;2024-01-25T08:55:00;11.00;93.80
4425;DHT22;2225;53.568;13.266;2024-01-25T08:57:27;11.00;93.80
4425;DHT22;2225;53.568;13.266;2024-01-25T08:59:54;11.00;93.80
4425;DHT22;2225;53.568;13.266;2024-01-25T09:02:21;11.00;93.90
4425;DHT22;2225;53.568;13.266;2024-01-25T09:04:53;11.00;93.90
4425;DHT22;2225;53.568;13.266;2024-01-25T09:07:20;11.00;93.90
4425;DHT22;2225;53.568;13.266;2024-01-25T09:09:48;11.00;94.00
4425;DHT22;2225;53.568;13.266;2024-01-25T09:12:15;11.00;94.00
4425;DHT22;2225;53.568;13.266;2024-01-25T09:14:43;11.00;94.00
4425;DHT22;2225;53.568;13.266;2024-01-25T09:17:10;11.00;94.00
4425;DHT22;2225;53.568;13.266;2024-01-25T09:19:37;11.00;94.10
4425;DHT22;2225;53.568;13.266;2024-01-25T09:22:04;11.00;94.10
4425;DHT22;2225;53.568;13.266;2024-01-25T09:24:31;11.00;94.10
4425;DHT22;2225;53.568;13.266;2024-01-25T09:27:00;11.00;94.20
4425;DHT22;2225;53.568;13.266;2024-01-25T09:29:27;11.00;94.20
4425;DHT22;2225;53.568;13.266;2024-01-25T09:31:54;11.00;94.20
4425;DHT22;2225;53.568;13.266;2024-01-25T09:34:21;11.00;94.20
4425;DHT22;2225;53.568;13.266;2024-01-25T09:36:49;11.10;94.10
4425;DHT22;2225;53.568;13.266;2024-01-25T09:39:16;11.10;94.20
4425;DHT22;2225;53.568;13.266;2024-01-25T09:41:44;11.10;94.10
4425;DHT22;2225;53.568;13.266;2024-01-25T09:44:13;11.00;94.10
4425;DHT22;2225;53.568;13.266;2024-01-25T09:46:41;11.10;94.20
4425;DHT22;2225;53.568;13.266;2024-01-25T09:49:09;11.10;94.20
4425;DHT22;2225;53.568;13.266;2024-01-25T09:51:38;11.10;94.20
4425;DHT22;2225;53.568;13.266;2024-01-25T09:54:06;11.10;94.10
4425;DHT22;2225;53.568;13.266;2024-01-25T09:56:33;11.10;94.10
4425;DHT22;2225;53.568;13.266;2024-01-25T09:59:01;11.10;94.00
4425;DHT22;2225;53.568;13.266;2024-01-25T10:01:28;11.10;94.10
4425;DHT22;2225;53.568;13.266;2024-01-25T10:03:55;11.10;94.10
4425;DHT22;2225;53.568;13.266;2024-01-25T10:06:23;11.10;94.10
4425;DHT22;2225;53.568;13.266;2024-01-25T10:08:52;11.20;94.10
4425;DHT22;2225;53.568;13.266;2024-01-25T10:11:19;11.20;94.10
4425;DHT22;2225;53.568;13.266;2024-01-25T10:13:49;11.20;94.00
4425;DHT22;2225;53.568;13.266;2024-01-25T10:16:18;11.20;93.90
4425;DHT22;2225;53.568;13.266;2024-01-25T10:18:47;11.20;94.00
4425;DHT22;2225;53.568;13.266;2024-01-25T10:21:15;11.20;93.90
4425;DHT22;2225;53.568;13.266;2024-01-25T10:23:45;11.20;93.70
4425;DHT22;2225;53.568;13.266;2024-01-25T10:26:15;11.20;93.90
4425;DHT22;2225;53.568;13.266;2024-01-25T10:28:49;11.20;93.80
4425;DHT22;2225;53.568;13.266;2024-01-25T10:31:17;11.30;93.90
4425;DHT22;2225;53.568;13.266;2024-01-25T10:33:45;11.20;93.70
4425;DHT22;2225;53.568;13.266;2024-01-25T10:36:13;11.30;93.80
4425;DHT22;2225;53.568;13.266;2024-01-25T10:38:42;11.30;93.70
4425;DHT22;2225;53.568;13.266;2024-01-25T10:41:13;11.30;93.60
4425;DHT22;2225;53.568;13.266;2024-01-25T10:43:41;11.30;93.70
4425;DHT22;2225;53.568;13.266;2024-01-25T10:46:08;11.30;93.50
4425;DHT22;2225;53.568;13.266;2024-01-25T10:48:37;11.30;93.50
4425;DHT22;2225;53.568;13.266;2024-01-25T10:51:04;11.30;93.50
4425;DHT22;2225;53.568;13.266;2024-01-25T10:53:32;11.40;93.60
4425;DHT22;2225;53.568;13.266;2024-01-25T10:56:02;11.40;93.70
4425;DHT22;2225;53.568;13.266;2024-01-25T10:58:33;11.40;93.60
4425;DHT22;2225;53.568;13.266;2024-01-25T11:01:08;11.40;93.60
4425;DHT22;2225;53.568;13.266;2024-01-25T11:03:42;11.40;93.60
4425;DHT22;2225;53.568;13.266;2024-01-25T11:06:13;11.50;93.70
4425;DHT22;2225;53.568;13.266;2024-01-25T11:08:41;11.50;93.60
4425;DHT22;2225;53.568;13.266;2024-01-25T11:11:11;11.50;93.60
4425;DHT22;2225;53.568;13.266;2024-01-25T11:13:40;11.50;93.50
4425;DHT22;2225;53.568;13.266;2024-01-25T11:16:15;11.50;93.40
4425;DHT22;2225;53.568;13.266;2024-01-25T11:18:50;11.50;93.50
4425;DHT22;2225;53.568;13.266;2024-01-25T11:21:40;11.60;93.30
4425;DHT22;2225;53.568;13.266;2024-01-25T11:26:44;11.60;93.50
4425;DHT22;2225;53.568;13.266;2024-01-25T11:31:44;11.60;93.20
4425;DHT22;2225;53.568;13.266;2024-01-25T11:34:12;11.60;93.20
4425;DHT22;2225;53.568;13.266;2024-01-25T11:36:42;11.60;93.20
4425;DHT22;2225;53.568;13.266;2024-01-25T11:39:10;11.60;93.20
4425;DHT22;2225;53.568;13.266;2024-01-25T11:41:38;11.60;93.30
4425;DHT22;2225;53.568;13.266;2024-01-25T11:44:05;11.50;93.40
4425;DHT22;2225;53.568;13.266;2024-01-25T11:46:32;11.60;93.50
4425;DHT22;2225;53.568;13.266;2024-01-25T11:49:04;11.60;93.50
4425;DHT22;2225;53.568;13.266;2024-01-25T11:51:31;11.60;93.40
4425;DHT22;2225;53.568;13.266;2024-01-25T11:53:59;11.60;93.40
4425;DHT22;2225;53.568;13.266;2024-01-25T11:56:32;11.70;93.40
4425;DHT22;2225;53.568;13.266;2024-01-25T11:59:01;11.70;93.40
4425;DHT22;2225;53.568;13.266;2024-01-25T12:01:29;11.70;93.30
4425;DHT22;2225;53.568;13.266;2024-01-25T12:03:57;11.80;93.40
4425;DHT22;2225;53.568;13.266;2024-01-25T12:06:24;11.80;93.20
4425;DHT22;2225;53.568;13.266;2024-01-25T12:08:51;11.80;93.20
4425;DHT22;2225;53.568;13.266;2024-01-25T12:11:18;11.90;93.20
4425;DHT22;2225;53.568;13.266;2024-01-25T12:13:48;11.90;93.40
4425;DHT22;2225;53.568;13.266;2024-01-25T12:16:15;11.80;92.80
4425;DHT22;2225;53.568;13.266;2024-01-25T12:18:43;11.90;92.70
4425;DHT22;2225;53.568;13.266;2024-01-25T12:21:13;11.90;92.80
4425;DHT22;2225;53.568;13.266;2024-01-25T12:23:40;11.90;92.90
4425;DHT22;2225;53.568;13.266;2024-01-25T12:26:10;11.90;92.80
4425;DHT22;2225;53.568;13.266;2024-01-25T12:28:40;11.90;92.70
4425;DHT22;2225;53.568;13.266;2024-01-25T12:31:09;11.90;92.70
4425;DHT22;2225;53.568;13.266;2024-01-25T12:33:36;11.90;92.60
4425;DHT22;2225;53.568;13.266;2024-01-25T12:36:04;11.90;92.70
4425;DHT22;2225;53.568;13.266;2024-01-25T12:38:32;11.90;93.00
4425;DHT22;2225;53.568;13.266;2024-01-25T12:41:02;11.90;92.90
4425;DHT22;2225;53.568;13.266;2024-01-25T12:43:30;11.90;93.00
4425;DHT22;2225;53.568;13.266;2024-01-25T12:45:58;11.90;92.90
4425;DHT22;2225;53.568;13.266;2024-01-25T12:48:42;11.90;92.60
4425;DHT22;2225;53.568;13.266;2024-01-25T12:51:10;11.90;92.70
4425;DHT22;2225;53.568;13.266;2024-01-25T12:53:37;11.90;92.90
4425;DHT22;2225;53.568;13.266;2024-01-25T12:56:05;12.00;92.80
4425;DHT22;2225;53.568;13.266;2024-01-25T12:58:32;11.90;92.80
4425;DHT22;2225;53.568;13.266;2024-01-25T13:00:59;11.90;93.00
4425;DHT22;2225;53.568;13.266;2024-01-25T13:03:27;11.90;92.90
4425;DHT22;2225;53.568;13.266;2024-01-25T13:05:54;11.90;92.90
4425;DHT22;2225;53.568;13.266;2024-01-25T13:08:21;11.90;92.90
4425;DHT22;2225;53.568;13.266;2024-01-25T13:10:48;11.90;92.80
4425;DHT22;2225;53.568;13.266;2024-01-25T13:13:15;11.90;92.80
4425;DHT22;2225;53.568;13.266;2024-01-25T13:15:42;11.90;92.60
4425;DHT22;2225;53.568;13.266;2024-01-25T13:18:09;11.90;92.70
4425;DHT22;2225;53.568;13.266;2024-01-25T13:20:36;11.90;92.90
4425;DHT22;2225;53.568;13.266;2024-01-25T13:23:03;11.90;92.50
4425;DHT22;2225;53.568;13.266;2024-01-25T13:25:31;11.80;92.40
4425;DHT22;2225;53.568;13.266;2024-01-25T13:27:58;11.80;92.40
4425;DHT22;2225;53.568;13.266;2024-01-25T13:30:25;11.80;92.60
4425;DHT22;2225;53.568;13.266;2024-01-25T13:32:52;11.80;92.40
4425;DHT22;2225;53.568;13.266;2024-01-25T13:35:19;11.80;92.60
4425;DHT22;2225;53.568;13.266;2024-01-25T13:37:46;11.70;92.60
4425;DHT22;2225;53.568;13.266;2024-01-25T13:40:13;11.70;92.70
4425;DHT22;2225;53.568;13.266;2024-01-25T13:42:40;11.70;92.70
4425;DHT22;2225;53.568;13.266;2024-01-25T13:45:07;11.60;92.80
4425;DHT22;2225;53.568;13.266;2024-01-25T13:47:34;11.60;92.80
4425;DHT22;2225;53.568;13.266;2024-01-25T13:50:01;11.60;92.90
4425;DHT22;2225;53.568;13.266;2024-01-25T13:52:28;11.50;92.90
4425;DHT22;2225;53.568;13.266;2024-01-25T13:54:55;11.50;93.00
4425;DHT22;2225;53.568;13.266;2024-01-25T13:57:22;11.50;93.10
4425;DHT22;2225;53.568;13.266;2024-01-25T13:59:51;11.50;93.10
4425;DHT22;2225;53.568;13.266;2024-01-25T14:02:18;11.50;93.10
4425;DHT22;2225;53.568;13.266;2024-01-25T14:04:45;11.50;93.00
4425;DHT22;2225;53.568;13.266;2024-01-25T14:07:16;11.50;93.10
4425;DHT22;2225;53.568;13.266;2024-01-25T14:09:47;11.50;93.10
4425;DHT22;2225;53.568;13.266;2024-01-25T14:12:18;11.40;93.00
4425;DHT22;2225;53.568;13.266;2024-01-25T14:14:45;11.40;93.10
4425;DHT22;2225;53.568;13.266;2024-01-25T14:17:13;11.40;93.10
4425;DHT22;2225;53.568;13.266;2024-01-25T14:19:40;11.40;93.10
4425;DHT22;2225;53.568;13.266;2024-01-25T14:22:07;11.40;93.00
4425;DHT22;2225;53.568;13.266;2024-01-25T14:24:54;11.50;93.10
4425;DHT22;2225;53.568;13.266;2024-01-25T14:27:21;11.40;93.00
4425;DHT22;2225;53.568;13.266;2024-01-25T14:29:48;11.40;93.00
4425;DHT22;2225;53.568;13.266;2024-01-25T14:32:17;11.40;93.00
4425;DHT22;2225;53.568;13.266;2024-01-25T14:34:46;11.40;93.00
4425;DHT22;2225;53.568;13.266;2024-01-25T14:37:13;11.30;93.00
4425;DHT22;2225;53.568;13.266;2024-01-25T14:39:40;11.40;93.00
4425;DHT22;2225;53.568;13.266;2024-01-25T14:42:17;11.30;93.00
4425;DHT22;2225;53.568;13.266;2024-01-25T14:44:44;11.30;93.00
4425;DHT22;2225;53.568;13.266;2024-01-25T14:47:11;11.30;93.10
4425;DHT22;2225;53.568;13.266;2024-01-25T14:49:40;11.30;93.10
4425;DHT22;2225;53.568;13.266;2024-01-25T14:52:07;11.30;93.00
4425;DHT22;2225;53.568;13.266;2024-01-25T14:54:34;11.30;93.00
4425;DHT22;2225;53.568;13.266;2024-01-25T14:57:02;11.20;93.00
4425;DHT22;2225;53.568;13.266;2024-01-25T14:59:29;11.20;93.10
4425;DHT22;2225;53.568;13.266;2024-01-25T15:01:55;11.20;93.20
4425;DHT22;2225;53.568;13.266;2024-01-25T15:04:22;11.10;93.10
4425;DHT22;2225;53.568;13.266;2024-01-25T15:06:50;11.20;93.20
4425;DHT22;2225;53.568;13.266;2024-01-25T15:09:17;11.20;93.30
4425;DHT22;2225;53.568;13.266;2024-01-25T15:11:44;11.10;93.30
4425;DHT22;2225;53.568;13.266;2024-01-25T15:14:13;11.20;93.50
4425;DHT22;2225;53.568;13.266;2024-01-25T15:16:40;11.10;93.60
4425;DHT22;2225;53.568;13.266;2024-01-25T15:19:07;11.10;93.60
4425;DHT22;2225;53.568;13.266;2024-01-25T15:21:34;11.10;93.60
4425;DHT22;2225;53.568;13.266;2024-01-25T15:24:02;11.10;93.70
4425;DHT22;2225;53.568;13.266;2024-01-25T15:26:29;11.10;93.70
4425;DHT22;2225;53.568;13.266;2024-01-25T15:28:56;11.10;93.80
4425;DHT22;2225;53.568;13.266;2024-01-25T15:31:23;11.00;93.70
4425;DHT22;2225;53.568;13.266;2024-01-25T15:33:50;11.10;93.80
4425;DHT22;2225;53.568;13.266;2024-01-25T15:36:22;11.00;93.70
4425;DHT22;2225;53.568;13.266;2024-01-25T15:38:49;11.00;93.80
4425;DHT22;2225;53.568;13.266;2024-01-25T15:41:16;11.00;93.80
4425;DHT22;2225;53.568;13.266;2024-01-25T15:43:45;11.00;93.80
4425;DHT22;2225;53.568;13.266;2024-01-25T15:46:12;11.00;93.80
4425;DHT22;2225;53.568;13.266;2024-01-25T15:48:42;11.00;93.80
4425;DHT22;2225;53.568;13.266;2024-01-25T15:51:09;11.00;93.90
4425;DHT22;2225;53.568;13.266;2024-01-25T15:53:36;11.00;93.90